sensor_id;sensor_type;location;lat;lon;timestamp;P1;durP1;ratioP1;P2;durP2;ratioP2
23472;SDS011;11909;52.516;13.564;2023-08-06T00:00:25;6.30;;;5.70;;
23472;SDS011;11909;52.516;13.564;2023-08-06T00:02:53;9.18;;;6.95;;
23472;SDS011;11909;52.516;13.564;2023-08-06T00:05:22;6.93;;;6.05;;
23472;SDS011;11909;52.516;13.564;2023-08-06T00:07:50;7.28;;;6.57;;
23472;SDS011;11909;52.516;13.564;2023-08-06T00:10:18;8.18;;;7.38;;
23472;SDS011;11909;52.516;13.564;2023-08-06T00:12:47;8.52;;;6.43;;
23472;SDS011;11909;52.516;13.564;2023-08-06T00:15:16;8.32;;;6.97;;
23472;SDS011;11909;52.516;13.564;2023-08-06T00:17:44;11.57;;;7.00;;
23472;SDS011;11909;52.516;13.564;2023-08-06T00:20:12;8.98;;;6.45;;
23472;SDS011;11909;52.516;13.564;2023-08-06T00:22:40;8.23;;;6.88;;
23472;SDS011;11909;52.516;13.564;2023-08-06T00:25:08;7.40;;;6.70;;
23472;SDS011;11909;52.516;13.564;2023-08-06T00:27:36;9.10;;;6.82;;
23472;SDS011;11909;52.516;13.564;2023-08-06T00:30:06;7.25;;;6.22;;
23472;SDS011;11909;52.516;13.564;2023-08-06T00:32:34;7.43;;;6.70;;
23472;SDS011;11909;52.516;13.564;2023-08-06T00:35:02;7.70;;;6.68;;
23472;SDS011;11909;52.516;13.564;2023-08-06T00:37:31;7.28;;;6.38;;
23472;SDS011;11909;52.516;13.564;2023-08-06T00:39:58;6.90;;;6.05;;
23472;SDS011;11909;52.516;13.564;2023-08-06T00:42:27;7.80;;;6.80;;
23472;SDS011;11909;52.516;13.564;2023-08-06T00:44:54;6.97;;;6.28;;
23472;SDS011;11909;52.516;13.564;2023-08-06T00:47:24;7.57;;;6.78;;
23472;SDS011;11909;52.516;13.564;2023-08-06T00:49:52;6.65;;;6.05;;
23472;SDS011;11909;52.516;13.564;2023-08-06T00:52:20;7.18;;;6.47;;
23472;SDS011;11909;52.516;13.564;2023-08-06T00:54:48;8.30;;;6.65;;
23472;SDS011;11909;52.516;13.564;2023-08-06T00:57:17;6.78;;;6.18;;
23472;SDS011;11909;52.516;13.564;2023-08-06T00:59:44;8.07;;;7.28;;
23472;SDS011;11909;52.516;13.564;2023-08-06T01:02:13;6.72;;;6.13;;
23472;SDS011;11909;52.516;13.564;2023-08-06T01:04:42;7.53;;;6.82;;
23472;SDS011;11909;52.516;13.564;2023-08-06T01:07:13;7.68;;;6.65;;
23472;SDS011;11909;52.516;13.564;2023-08-06T01:10:00;7.95;;;7.15;;
23472;SDS011;11909;52.516;13.564;2023-08-06T01:12:45;8.90;;;7.85;;
23472;SDS011;11909;52.516;13.564;2023-08-06T01:15:19;7.95;;;6.88;;
23472;SDS011;11909;52.516;13.564;2023-08-06T01:17:50;9.10;;;7.05;;
23472;SDS011;11909;52.516;13.564;2023-08-06T01:20:19;13.70;;;7.55;;
23472;SDS011;11909;52.516;13.564;2023-08-06T01:22:48;7.70;;;7.00;;
23472;SDS011;11909;52.516;13.564;2023-08-06T01:25:16;8.52;;;7.10;;
23472;SDS011;11909;52.516;13.564;2023-08-06T01:27:44;7.45;;;6.70;;
23472;SDS011;11909;52.516;13.564;2023-08-06T01:30:16;7.72;;;7.03;;
23472;SDS011;11909;52.516;13.564;2023-08-06T01:32:56;8.15;;;7.18;;
23472;SDS011;11909;52.516;13.564;2023-08-06T01:35:28;9.02;;;7.03;;
23472;SDS011;11909;52.516;13.564;2023-08-06T01:37:58;8.60;;;7.70;;
23472;SDS011;11909;52.516;13.564;2023-08-06T01:40:27;10.10;;;7.72;;
23472;SDS011;11909;52.516;13.564;2023-08-06T01:42:55;8.35;;;7.53;;
23472;SDS011;11909;52.516;13.564;2023-08-06T01:45:24;10.15;;;6.97;;
23472;SDS011;11909;52.516;13.564;2023-08-06T01:47:51;8.50;;;7.03;;
23472;SDS011;11909;52.516;13.564;2023-08-06T01:50:19;8.77;;;7.10;;
23472;SDS011;11909;52.516;13.564;2023-08-06T01:52:47;7.75;;;6.97;;
23472;SDS011;11909;52.516;13.564;2023-08-06T01:55:17;11.68;;;7.53;;
23472;SDS011;11909;52.516;13.564;2023-08-06T01:57:45;7.85;;;7.05;;
23472;SDS011;11909;52.516;13.564;2023-08-06T02:00:13;8.55;;;7.75;;
23472;SDS011;11909;52.516;13.564;2023-08-06T02:02:41;8.88;;;7.97;;
23472;SDS011;11909;52.516;13.564;2023-08-06T02:05:09;9.45;;;8.45;;
23472;SDS011;11909;52.516;13.564;2023-08-06T02:07:37;8.23;;;7.43;;
23472;SDS011;11909;52.516;13.564;2023-08-06T02:10:06;8.25;;;7.22;;
23472;SDS011;11909;52.516;13.564;2023-08-06T02:12:35;8.07;;;7.38;;
23472;SDS011;11909;52.516;13.564;2023-08-06T02:15:04;7.60;;;6.90;;
23472;SDS011;11909;52.516;13.564;2023-08-06T02:17:32;8.10;;;6.88;;
23472;SDS011;11909;52.516;13.564;2023-08-06T02:20:00;7.43;;;6.72;;
23472;SDS011;11909;52.516;13.564;2023-08-06T02:22:29;6.85;;;6.25;;
23472;SDS011;11909;52.516;13.564;2023-08-06T02:24:56;7.00;;;6.30;;
23472;SDS011;11909;52.516;13.564;2023-08-06T02:27:24;7.53;;;6.03;;
23472;SDS011;11909;52.516;13.564;2023-08-06T02:29:53;5.97;;;5.40;;
23472;SDS011;11909;52.516;13.564;2023-08-06T02:32:22;6.43;;;4.97;;
23472;SDS011;11909;52.516;13.564;2023-08-06T02:34:50;6.00;;;5.40;;
23472;SDS011;11909;52.516;13.564;2023-08-06T02:37:18;5.70;;;5.20;;
23472;SDS011;11909;52.516;13.564;2023-08-06T02:39:46;6.72;;;5.60;;
23472;SDS011;11909;52.516;13.564;2023-08-06T02:42:14;6.50;;;5.13;;
23472;SDS011;11909;52.516;13.564;2023-08-06T02:44:41;5.18;;;4.53;;
23472;SDS011;11909;52.516;13.564;2023-08-06T02:47:11;7.03;;;4.97;;
23472;SDS011;11909;52.516;13.564;2023-08-06T02:49:39;6.53;;;5.70;;
23472;SDS011;11909;52.516;13.564;2023-08-06T02:52:07;5.60;;;5.10;;
23472;SDS011;11909;52.516;13.564;2023-08-06T02:54:35;5.82;;;5.22;;
23472;SDS011;11909;52.516;13.564;2023-08-06T02:57:03;5.28;;;4.80;;
23472;SDS011;11909;52.516;13.564;2023-08-06T02:59:31;6.57;;;5.80;;
23472;SDS011;11909;52.516;13.564;2023-08-06T03:01:59;8.02;;;5.22;;
23472;SDS011;11909;52.516;13.564;2023-08-06T03:04:28;6.50;;;5.90;;
23472;SDS011;11909;52.516;13.564;2023-08-06T03:06:57;5.85;;;5.28;;
23472;SDS011;11909;52.516;13.564;2023-08-06T03:09:24;5.63;;;5.07;;
23472;SDS011;11909;52.516;13.564;2023-08-06T03:11:52;6.63;;;5.57;;
23472;SDS011;11909;52.516;13.564;2023-08-06T03:14:21;7.10;;;5.15;;
23472;SDS011;11909;52.516;13.564;2023-08-06T03:16:48;6.78;;;5.43;;
23472;SDS011;11909;52.516;13.564;2023-08-06T03:19:16;6.07;;;5.47;;
23472;SDS011;11909;52.516;13.564;2023-08-06T03:21:45;6.18;;;5.57;;
23472;SDS011;11909;52.516;13.564;2023-08-06T03:24:14;6.22;;;5.63;;
23472;SDS011;11909;52.516;13.564;2023-08-06T03:26:41;7.18;;;6.15;;
23472;SDS011;11909;52.516;13.564;2023-08-06T03:29:09;5.85;;;5.25;;
23472;SDS011;11909;52.516;13.564;2023-08-06T03:31:37;6.13;;;5.53;;
23472;SDS011;11909;52.516;13.564;2023-08-06T03:34:05;7.05;;;6.07;;
23472;SDS011;11909;52.516;13.564;2023-08-06T03:36:33;6.43;;;5.55;;
23472;SDS011;11909;52.516;13.564;2023-08-06T03:39:02;6.82;;;5.80;;
23472;SDS011;11909;52.516;13.564;2023-08-06T03:41:31;6.03;;;5.03;;
23472;SDS011;11909;52.516;13.564;2023-08-06T03:43:59;5.88;;;5.25;;
23472;SDS011;11909;52.516;13.564;2023-08-06T03:51:28;5.05;;;4.55;;
23472;SDS011;11909;52.516;13.564;2023-08-06T03:53:56;4.72;;;4.32;;
23472;SDS011;11909;52.516;13.564;2023-08-06T03:56:25;6.57;;;4.47;;
23472;SDS011;11909;52.516;13.564;2023-08-06T03:58:53;5.53;;;4.40;;
23472;SDS011;11909;52.516;13.564;2023-08-06T04:01:21;5.05;;;4.55;;
23472;SDS011;11909;52.516;13.564;2023-08-06T04:03:49;6.18;;;4.65;;
23472;SDS011;11909;52.516;13.564;2023-08-06T04:06:17;6.45;;;4.70;;
23472;SDS011;11909;52.516;13.564;2023-08-06T04:08:45;5.28;;;4.05;;
23472;SDS011;11909;52.516;13.564;2023-08-06T04:11:13;5.72;;;4.80;;
23472;SDS011;11909;52.516;13.564;2023-08-06T04:13:43;5.07;;;4.68;;
23472;SDS011;11909;52.516;13.564;2023-08-06T04:16:11;6.70;;;4.32;;
23472;SDS011;11909;52.516;13.564;2023-08-06T04:18:41;4.72;;;4.10;;
23472;SDS011;11909;52.516;13.564;2023-08-06T04:21:09;4.88;;;4.22;;
23472;SDS011;11909;52.516;13.564;2023-08-06T04:23:37;5.57;;;4.07;;
23472;SDS011;11909;52.516;13.564;2023-08-06T04:26:05;4.53;;;4.10;;
23472;SDS011;11909;52.516;13.564;2023-08-06T04:28:33;4.10;;;3.70;;
23472;SDS011;11909;52.516;13.564;2023-08-06T04:31:02;4.97;;;4.47;;
23472;SDS011;11909;52.516;13.564;2023-08-06T04:33:30;6.03;;;4.68;;
23472;SDS011;11909;52.516;13.564;2023-08-06T04:35:59;4.40;;;3.90;;
23472;SDS011;11909;52.516;13.564;2023-08-06T04:38:27;5.30;;;4.57;;
23472;SDS011;11909;52.516;13.564;2023-08-06T04:40:55;5.97;;;4.30;;
23472;SDS011;11909;52.516;13.564;2023-08-06T04:43:23;4.63;;;4.22;;
23472;SDS011;11909;52.516;13.564;2023-08-06T04:45:54;5.05;;;4.57;;
23472;SDS011;11909;52.516;13.564;2023-08-06T04:48:24;4.85;;;4.35;;
23472;SDS011;11909;52.516;13.564;2023-08-06T04:50:52;5.43;;;4.00;;
23472;SDS011;11909;52.516;13.564;2023-08-06T04:53:21;4.82;;;3.97;;
23472;SDS011;11909;52.516;13.564;2023-08-06T04:55:49;5.38;;;4.07;;
23472;SDS011;11909;52.516;13.564;2023-08-06T04:58:17;4.22;;;3.83;;
23472;SDS011;11909;52.516;13.564;2023-08-06T05:00:45;4.30;;;3.90;;
23472;SDS011;11909;52.516;13.564;2023-08-06T05:03:13;5.95;;;4.10;;
23472;SDS011;11909;52.516;13.564;2023-08-06T05:05:42;6.30;;;4.20;;
23472;SDS011;11909;52.516;13.564;2023-08-06T05:08:13;4.37;;;3.73;;
23472;SDS011;11909;52.516;13.564;2023-08-06T05:10:43;5.65;;;3.92;;
23472;SDS011;11909;52.516;13.564;2023-08-06T05:13:11;5.03;;;4.00;;
23472;SDS011;11909;52.516;13.564;2023-08-06T05:15:39;5.25;;;4.25;;
23472;SDS011;11909;52.516;13.564;2023-08-06T05:18:09;4.82;;;4.38;;
23472;SDS011;11909;52.516;13.564;2023-08-06T05:20:38;4.38;;;3.97;;
23472;SDS011;11909;52.516;13.564;2023-08-06T05:23:08;4.32;;;3.92;;
23472;SDS011;11909;52.516;13.564;2023-08-06T05:25:36;5.03;;;4.15;;
23472;SDS011;11909;52.516;13.564;2023-08-06T05:28:04;5.13;;;4.72;;
23472;SDS011;11909;52.516;13.564;2023-08-06T05:30:32;6.18;;;5.03;;
23472;SDS011;11909;52.516;13.564;2023-08-06T05:33:00;5.28;;;4.65;;
23472;SDS011;11909;52.516;13.564;2023-08-06T05:35:28;4.90;;;4.35;;
23472;SDS011;11909;52.516;13.564;2023-08-06T05:37:56;6.20;;;5.30;;
23472;SDS011;11909;52.516;13.564;2023-08-06T05:40:25;6.45;;;5.63;;
23472;SDS011;11909;52.516;13.564;2023-08-06T05:42:53;6.78;;;6.05;;
23472;SDS011;11909;52.516;13.564;2023-08-06T05:45:22;6.05;;;5.45;;
23472;SDS011;11909;52.516;13.564;2023-08-06T05:47:50;7.38;;;5.45;;
23472;SDS011;11909;52.516;13.564;2023-08-06T05:50:20;6.30;;;5.70;;
23472;SDS011;11909;52.516;13.564;2023-08-06T05:52:48;7.50;;;6.13;;
23472;SDS011;11909;52.516;13.564;2023-08-06T05:55:16;6.07;;;5.47;;
23472;SDS011;11909;52.516;13.564;2023-08-06T05:57:45;6.47;;;5.53;;
23472;SDS011;11909;52.516;13.564;2023-08-06T06:00:13;6.07;;;5.47;;
23472;SDS011;11909;52.516;13.564;2023-08-06T06:02:41;6.30;;;5.47;;
23472;SDS011;11909;52.516;13.564;2023-08-06T06:05:09;6.38;;;5.55;;
23472;SDS011;11909;52.516;13.564;2023-08-06T06:07:37;6.18;;;5.30;;
23472;SDS011;11909;52.516;13.564;2023-08-06T06:10:05;6.38;;;5.40;;
23472;SDS011;11909;52.516;13.564;2023-08-06T06:12:34;5.63;;;5.00;;
23472;SDS011;11909;52.516;13.564;2023-08-06T06:15:04;4.63;;;4.22;;
23472;SDS011;11909;52.516;13.564;2023-08-06T06:17:32;6.50;;;5.25;;
23472;SDS011;11909;52.516;13.564;2023-08-06T06:20:00;6.10;;;5.45;;
23472;SDS011;11909;52.516;13.564;2023-08-06T06:22:30;6.60;;;6.00;;
23472;SDS011;11909;52.516;13.564;2023-08-06T06:24:58;7.15;;;6.40;;
23472;SDS011;11909;52.516;13.564;2023-08-06T06:27:26;8.68;;;7.18;;
23472;SDS011;11909;52.516;13.564;2023-08-06T06:29:54;7.63;;;6.93;;
23472;SDS011;11909;52.516;13.564;2023-08-06T06:32:23;8.20;;;6.45;;
23472;SDS011;11909;52.516;13.564;2023-08-06T06:34:51;7.43;;;6.13;;
23472;SDS011;11909;52.516;13.564;2023-08-06T06:37:19;8.18;;;7.38;;
23472;SDS011;11909;52.516;13.564;2023-08-06T06:39:47;7.68;;;6.68;;
23472;SDS011;11909;52.516;13.564;2023-08-06T06:42:15;8.80;;;7.93;;
23472;SDS011;11909;52.516;13.564;2023-08-06T06:44:43;7.20;;;6.50;;
23472;SDS011;11909;52.516;13.564;2023-08-06T06:47:10;7.15;;;6.32;;
23472;SDS011;11909;52.516;13.564;2023-08-06T06:49:40;8.80;;;7.28;;
23472;SDS011;11909;52.516;13.564;2023-08-06T06:52:08;7.72;;;6.32;;
23472;SDS011;11909;52.516;13.564;2023-08-06T06:54:36;8.65;;;7.80;;
23472;SDS011;11909;52.516;13.564;2023-08-06T06:57:04;7.55;;;6.75;;
23472;SDS011;11909;52.516;13.564;2023-08-06T06:59:33;7.82;;;7.10;;
23472;SDS011;11909;52.516;13.564;2023-08-06T07:02:01;9.00;;;7.95;;
23472;SDS011;11909;52.516;13.564;2023-08-06T07:04:29;8.43;;;7.63;;
23472;SDS011;11909;52.516;13.564;2023-08-06T07:06:58;7.85;;;7.15;;
23472;SDS011;11909;52.516;13.564;2023-08-06T07:09:26;7.88;;;7.07;;
23472;SDS011;11909;52.516;13.564;2023-08-06T07:11:54;9.85;;;8.35;;
23472;SDS011;11909;52.516;13.564;2023-08-06T07:14:22;7.88;;;7.07;;
23472;SDS011;11909;52.516;13.564;2023-08-06T07:16:52;8.73;;;7.83;;
23472;SDS011;11909;52.516;13.564;2023-08-06T07:19:19;8.80;;;7.97;;
23472;SDS011;11909;52.516;13.564;2023-08-06T07:21:48;10.43;;;8.88;;
23472;SDS011;11909;52.516;13.564;2023-08-06T07:24:17;7.72;;;7.03;;
23472;SDS011;11909;52.516;13.564;2023-08-06T07:26:45;7.15;;;6.45;;
23472;SDS011;11909;52.516;13.564;2023-08-06T07:29:13;9.05;;;8.15;;
23472;SDS011;11909;52.516;13.564;2023-08-06T07:31:46;7.70;;;7.00;;
23472;SDS011;11909;52.516;13.564;2023-08-06T07:34:14;11.55;;;8.55;;
23472;SDS011;11909;52.516;13.564;2023-08-06T07:36:43;7.43;;;6.72;;
23472;SDS011;11909;52.516;13.564;2023-08-06T07:39:11;7.93;;;7.13;;
23472;SDS011;11909;52.516;13.564;2023-08-06T07:41:41;7.47;;;6.78;;
23472;SDS011;11909;52.516;13.564;2023-08-06T07:44:08;9.32;;;7.95;;
23472;SDS011;11909;52.516;13.564;2023-08-06T07:46:36;7.40;;;6.70;;
23472;SDS011;11909;52.516;13.564;2023-08-06T07:49:05;7.60;;;6.90;;
23472;SDS011;11909;52.516;13.564;2023-08-06T07:51:33;8.07;;;7.28;;
23472;SDS011;11909;52.516;13.564;2023-08-06T07:54:01;7.38;;;6.70;;
23472;SDS011;11909;52.516;13.564;2023-08-06T07:56:29;8.00;;;7.22;;
23472;SDS011;11909;52.516;13.564;2023-08-06T07:58:58;9.07;;;7.30;;
23472;SDS011;11909;52.516;13.564;2023-08-06T08:01:27;6.32;;;5.72;;
23472;SDS011;11909;52.516;13.564;2023-08-06T08:03:54;6.68;;;5.97;;
23472;SDS011;11909;52.516;13.564;2023-08-06T08:06:22;6.25;;;5.75;;
23472;SDS011;11909;52.516;13.564;2023-08-06T08:08:50;6.80;;;6.10;;
23472;SDS011;11909;52.516;13.564;2023-08-06T08:11:20;7.18;;;6.47;;
23472;SDS011;11909;52.516;13.564;2023-08-06T08:13:47;7.35;;;6.63;;
23472;SDS011;11909;52.516;13.564;2023-08-06T08:16:17;7.25;;;6.55;;
23472;SDS011;11909;52.516;13.564;2023-08-06T08:18:44;7.40;;;6.25;;
23472;SDS011;11909;52.516;13.564;2023-08-06T08:21:13;8.98;;;6.60;;
23472;SDS011;11909;52.516;13.564;2023-08-06T08:23:43;7.78;;;7.00;;
23472;SDS011;11909;52.516;13.564;2023-08-06T08:26:11;6.68;;;6.07;;
23472;SDS011;11909;52.516;13.564;2023-08-06T08:28:39;8.00;;;7.20;;
23472;SDS011;11909;52.516;13.564;2023-08-06T08:31:08;7.57;;;6.88;;
23472;SDS011;11909;52.516;13.564;2023-08-06T08:33:37;7.18;;;6.38;;
23472;SDS011;11909;52.516;13.564;2023-08-06T08:36:05;6.47;;;5.90;;
23472;SDS011;11909;52.516;13.564;2023-08-06T08:38:33;6.95;;;6.25;;
23472;SDS011;11909;52.516;13.564;2023-08-06T08:41:01;9.02;;;6.63;;
23472;SDS011;11909;52.516;13.564;2023-08-06T08:43:29;6.95;;;6.28;;
23472;SDS011;11909;52.516;13.564;2023-08-06T08:45:58;6.53;;;5.93;;
23472;SDS011;11909;52.516;13.564;2023-08-06T08:48:27;6.93;;;6.32;;
23472;SDS011;11909;52.516;13.564;2023-08-06T08:50:56;8.10;;;7.13;;
23472;SDS011;11909;52.516;13.564;2023-08-06T08:55:54;8.80;;;7.20;;
23472;SDS011;11909;52.516;13.564;2023-08-06T08:58:22;8.15;;;7.22;;
23472;SDS011;11909;52.516;13.564;2023-08-06T09:00:50;8.65;;;7.85;;
23472;SDS011;11909;52.516;13.564;2023-08-06T09:03:20;7.95;;;7.25;;
23472;SDS011;11909;52.516;13.564;2023-08-06T09:05:49;8.65;;;7.88;;
23472;SDS011;11909;52.516;13.564;2023-08-06T09:08:21;9.20;;;8.30;;
23472;SDS011;11909;52.516;13.564;2023-08-06T09:10:54;8.35;;;7.55;;
23472;SDS011;11909;52.516;13.564;2023-08-06T09:13:25;9.88;;;8.35;;
23472;SDS011;11909;52.516;13.564;2023-08-06T09:15:53;8.73;;;7.85;;
23472;SDS011;11909;52.516;13.564;2023-08-06T09:18:25;8.27;;;7.53;;
23472;SDS011;11909;52.516;13.564;2023-08-06T09:20:54;9.05;;;8.15;;
23472;SDS011;11909;52.516;13.564;2023-08-06T09:23:28;9.00;;;7.97;;
23472;SDS011;11909;52.516;13.564;2023-08-06T09:25:57;8.32;;;7.53;;
23472;SDS011;11909;52.516;13.564;2023-08-06T09:28:29;10.05;;;9.15;;
23472;SDS011;11909;52.516;13.564;2023-08-06T09:31:04;8.43;;;7.63;;
23472;SDS011;11909;52.516;13.564;2023-08-06T09:33:32;8.02;;;7.25;;
23472;SDS011;11909;52.516;13.564;2023-08-06T09:36:06;7.95;;;7.25;;
23472;SDS011;11909;52.516;13.564;2023-08-06T09:38:38;8.25;;;7.50;;
23472;SDS011;11909;52.516;13.564;2023-08-06T09:41:07;7.40;;;6.70;;
23472;SDS011;11909;52.516;13.564;2023-08-06T09:43:41;6.38;;;5.78;;
23472;SDS011;11909;52.516;13.564;2023-08-06T09:46:12;6.13;;;5.25;;
23472;SDS011;11909;52.516;13.564;2023-08-06T09:48:46;7.20;;;5.95;;
23472;SDS011;11909;52.516;13.564;2023-08-06T09:51:14;6.15;;;5.28;;
23472;SDS011;11909;52.516;13.564;2023-08-06T09:53:44;6.25;;;5.65;;
23472;SDS011;11909;52.516;13.564;2023-08-06T09:56:14;5.68;;;4.88;;
23472;SDS011;11909;52.516;13.564;2023-08-06T09:58:44;5.50;;;5.10;;
23472;SDS011;11909;52.516;13.564;2023-08-06T10:01:15;6.63;;;6.03;;
23472;SDS011;11909;52.516;13.564;2023-08-06T10:03:44;6.13;;;5.40;;
23472;SDS011;11909;52.516;13.564;2023-08-06T10:06:13;6.57;;;5.97;;
23472;SDS011;11909;52.516;13.564;2023-08-06T10:08:41;6.57;;;5.97;;
23472;SDS011;11909;52.516;13.564;2023-08-06T10:11:10;7.30;;;6.60;;
23472;SDS011;11909;52.516;13.564;2023-08-06T10:13:39;7.75;;;7.03;;
23472;SDS011;11909;52.516;13.564;2023-08-06T10:16:07;7.78;;;7.07;;
23472;SDS011;11909;52.516;13.564;2023-08-06T10:18:35;7.03;;;6.35;;
23472;SDS011;11909;52.516;13.564;2023-08-06T10:21:07;7.30;;;6.70;;
23472;SDS011;11909;52.516;13.564;2023-08-06T10:23:36;7.45;;;6.18;;
23472;SDS011;11909;52.516;13.564;2023-08-06T10:26:05;6.25;;;5.65;;
23472;SDS011;11909;52.516;13.564;2023-08-06T10:28:37;6.57;;;5.85;;
23472;SDS011;11909;52.516;13.564;2023-08-06T10:31:06;5.97;;;5.38;;
23472;SDS011;11909;52.516;13.564;2023-08-06T10:33:41;6.47;;;5.75;;
23472;SDS011;11909;52.516;13.564;2023-08-06T10:36:11;6.90;;;6.20;;
23472;SDS011;11909;52.516;13.564;2023-08-06T10:38:45;6.57;;;5.85;;
23472;SDS011;11909;52.516;13.564;2023-08-06T10:41:15;7.63;;;5.78;;
23472;SDS011;11909;52.516;13.564;2023-08-06T10:43:45;6.63;;;5.57;;
23472;SDS011;11909;52.516;13.564;2023-08-06T10:46:22;6.80;;;5.78;;
23472;SDS011;11909;52.516;13.564;2023-08-06T10:48:50;6.03;;;5.40;;
23472;SDS011;11909;52.516;13.564;2023-08-06T10:51:18;6.47;;;5.40;;
23472;SDS011;11909;52.516;13.564;2023-08-06T10:53:47;7.63;;;6.13;;
23472;SDS011;11909;52.516;13.564;2023-08-06T10:56:17;6.53;;;5.93;;
23472;SDS011;11909;52.516;13.564;2023-08-06T10:58:47;6.75;;;6.05;;
23472;SDS011;11909;52.516;13.564;2023-08-06T11:01:15;6.43;;;5.82;;
23472;SDS011;11909;52.516;13.564;2023-08-06T11:03:44;7.20;;;6.50;;
23472;SDS011;11909;52.516;13.564;2023-08-06T11:06:16;6.53;;;5.93;;
23472;SDS011;11909;52.516;13.564;2023-08-06T11:08:47;6.57;;;5.90;;
23472;SDS011;11909;52.516;13.564;2023-08-06T11:13:44;6.03;;;5.53;;
23472;SDS011;11909;52.516;13.564;2023-08-06T11:16:14;5.97;;;5.38;;
23472;SDS011;11909;52.516;13.564;2023-08-06T11:18:44;6.30;;;5.70;;
23472;SDS011;11909;52.516;13.564;2023-08-06T11:21:13;6.22;;;5.63;;
23472;SDS011;11909;52.516;13.564;2023-08-06T11:23:41;6.25;;;5.65;;
23472;SDS011;11909;52.516;13.564;2023-08-06T11:26:09;6.63;;;5.93;;
23472;SDS011;11909;52.516;13.564;2023-08-06T11:28:39;6.57;;;5.97;;
23472;SDS011;11909;52.516;13.564;2023-08-06T11:31:14;6.45;;;5.70;;
23472;SDS011;11909;52.516;13.564;2023-08-06T11:33:46;6.45;;;5.85;;
23472;SDS011;11909;52.516;13.564;2023-08-06T11:36:14;6.75;;;5.97;;
23472;SDS011;11909;52.516;13.564;2023-08-06T11:38:42;6.63;;;5.88;;
23472;SDS011;11909;52.516;13.564;2023-08-06T11:41:10;5.53;;;5.03;;
23472;SDS011;11909;52.516;13.564;2023-08-06T11:43:39;7.20;;;6.43;;
23472;SDS011;11909;52.516;13.564;2023-08-06T11:46:07;6.22;;;5.43;;
23472;SDS011;11909;52.516;13.564;2023-08-06T11:48:51;9.80;;;6.82;;
23472;SDS011;11909;52.516;13.564;2023-08-06T11:51:22;6.95;;;6.25;;
23472;SDS011;11909;52.516;13.564;2023-08-06T11:53:50;6.95;;;6.03;;
23472;SDS011;11909;52.516;13.564;2023-08-06T11:56:18;8.30;;;6.53;;
23472;SDS011;11909;52.516;13.564;2023-08-06T11:58:47;7.05;;;6.35;;
23472;SDS011;11909;52.516;13.564;2023-08-06T12:01:15;7.25;;;6.63;;
23472;SDS011;11909;52.516;13.564;2023-08-06T12:03:43;6.78;;;6.15;;
23472;SDS011;11909;52.516;13.564;2023-08-06T12:06:12;7.85;;;7.07;;
23472;SDS011;11909;52.516;13.564;2023-08-06T12:08:40;7.38;;;6.50;;
23472;SDS011;11909;52.516;13.564;2023-08-06T12:11:08;6.47;;;5.88;;
23472;SDS011;11909;52.516;13.564;2023-08-06T12:13:36;8.10;;;6.53;;
23472;SDS011;11909;52.516;13.564;2023-08-06T12:16:04;7.47;;;6.72;;
23472;SDS011;11909;52.516;13.564;2023-08-06T12:18:32;7.55;;;6.78;;
23472;SDS011;11909;52.516;13.564;2023-08-06T12:21:00;7.82;;;7.10;;
23472;SDS011;11909;52.516;13.564;2023-08-06T12:23:29;8.65;;;6.60;;
23472;SDS011;11909;52.516;13.564;2023-08-06T12:25:59;6.65;;;6.05;;
23472;SDS011;11909;52.516;13.564;2023-08-06T12:28:27;7.70;;;7.00;;
23472;SDS011;11909;52.516;13.564;2023-08-06T12:30:55;7.00;;;6.30;;
23472;SDS011;11909;52.516;13.564;2023-08-06T12:33:23;7.35;;;6.32;;
23472;SDS011;11909;52.516;13.564;2023-08-06T12:35:51;6.90;;;6.30;;
23472;SDS011;11909;52.516;13.564;2023-08-06T12:38:20;7.10;;;6.50;;
23472;SDS011;11909;52.516;13.564;2023-08-06T12:40:50;7.28;;;6.57;;
23472;SDS011;11909;52.516;13.564;2023-08-06T12:43:18;8.83;;;7.10;;
23472;SDS011;11909;52.516;13.564;2023-08-06T12:45:46;7.07;;;6.38;;
23472;SDS011;11909;52.516;13.564;2023-08-06T12:48:15;8.93;;;6.75;;
23472;SDS011;11909;52.516;13.564;2023-08-06T12:50:43;9.30;;;8.07;;
23472;SDS011;11909;52.516;13.564;2023-08-06T12:53:11;9.15;;;8.20;;
23472;SDS011;11909;52.516;13.564;2023-08-06T12:55:39;8.23;;;7.10;;
23472;SDS011;11909;52.516;13.564;2023-08-06T12:58:09;7.90;;;7.07;;
23472;SDS011;11909;52.516;13.564;2023-08-06T13:00:37;7.13;;;6.53;;
23472;SDS011;11909;52.516;13.564;2023-08-06T13:03:04;6.97;;;6.38;;
23472;SDS011;11909;52.516;13.564;2023-08-06T13:05:33;7.68;;;6.90;;
23472;SDS011;11909;52.516;13.564;2023-08-06T13:08:00;6.40;;;5.80;;
23472;SDS011;11909;52.516;13.564;2023-08-06T13:10:29;7.47;;;6.63;;
23472;SDS011;11909;52.516;13.564;2023-08-06T13:12:57;7.72;;;6.35;;
23472;SDS011;11909;52.516;13.564;2023-08-06T13:15:27;8.38;;;6.65;;
23472;SDS011;11909;52.516;13.564;2023-08-06T13:17:55;7.97;;;6.90;;
23472;SDS011;11909;52.516;13.564;2023-08-06T13:20:22;8.10;;;7.35;;
23472;SDS011;11909;52.516;13.564;2023-08-06T13:22:50;7.25;;;6.55;;
23472;SDS011;11909;52.516;13.564;2023-08-06T13:25:20;7.30;;;6.60;;
23472;SDS011;11909;52.516;13.564;2023-08-06T13:27:48;7.30;;;6.57;;
23472;SDS011;11909;52.516;13.564;2023-08-06T13:30:16;8.00;;;7.20;;
23472;SDS011;11909;52.516;13.564;2023-08-06T13:32:46;8.82;;;7.25;;
23472;SDS011;11909;52.516;13.564;2023-08-06T13:35:14;8.40;;;7.30;;
23472;SDS011;11909;52.516;13.564;2023-08-06T13:37:42;10.15;;;7.00;;
23472;SDS011;11909;52.516;13.564;2023-08-06T13:40:10;7.65;;;6.30;;
23472;SDS011;11909;52.516;13.564;2023-08-06T13:42:38;7.50;;;5.70;;
23472;SDS011;11909;52.516;13.564;2023-08-06T13:45:06;6.95;;;6.22;;
23472;SDS011;11909;52.516;13.564;2023-08-06T13:47:35;8.38;;;5.90;;
23472;SDS011;11909;52.516;13.564;2023-08-06T13:50:05;5.93;;;5.03;;
23472;SDS011;11909;52.516;13.564;2023-08-06T13:52:34;6.25;;;5.65;;
23472;SDS011;11909;52.516;13.564;2023-08-06T13:55:02;6.38;;;4.95;;
23472;SDS011;11909;52.516;13.564;2023-08-06T13:57:31;6.97;;;4.95;;
23472;SDS011;11909;52.516;13.564;2023-08-06T13:59:59;7.65;;;6.13;;
23472;SDS011;11909;52.516;13.564;2023-08-06T14:02:27;6.93;;;5.68;;
23472;SDS011;11909;52.516;13.564;2023-08-06T14:04:55;6.53;;;5.60;;
23472;SDS011;11909;52.516;13.564;2023-08-06T14:07:25;8.15;;;6.50;;
23472;SDS011;11909;52.516;13.564;2023-08-06T14:09:52;6.10;;;5.50;;
23472;SDS011;11909;52.516;13.564;2023-08-06T14:12:20;12.50;;;6.47;;
23472;SDS011;11909;52.516;13.564;2023-08-06T14:14:48;7.82;;;5.78;;
23472;SDS011;11909;52.516;13.564;2023-08-06T14:17:16;7.55;;;6.28;;
23472;SDS011;11909;52.516;13.564;2023-08-06T14:19:44;9.07;;;6.13;;
23472;SDS011;11909;52.516;13.564;2023-08-06T14:22:12;6.10;;;5.50;;
23472;SDS011;11909;52.516;13.564;2023-08-06T14:24:41;8.32;;;5.75;;
23472;SDS011;11909;52.516;13.564;2023-08-06T14:27:09;6.70;;;5.00;;
23472;SDS011;11909;52.516;13.564;2023-08-06T14:29:37;4.80;;;4.20;;
23472;SDS011;11909;52.516;13.564;2023-08-06T14:32:05;4.60;;;4.18;;
23472;SDS011;11909;52.516;13.564;2023-08-06T14:34:34;4.38;;;3.55;;
23472;SDS011;11909;52.516;13.564;2023-08-06T14:37:02;4.20;;;3.80;;
23472;SDS011;11909;52.516;13.564;2023-08-06T14:39:31;7.05;;;4.18;;
23472;SDS011;11909;52.516;13.564;2023-08-06T14:42:00;6.93;;;4.80;;
23472;SDS011;11909;52.516;13.564;2023-08-06T14:44:28;4.10;;;3.65;;
23472;SDS011;11909;52.516;13.564;2023-08-06T14:46:56;5.57;;;3.95;;
23472;SDS011;11909;52.516;13.564;2023-08-06T14:49:25;5.75;;;4.35;;
23472;SDS011;11909;52.516;13.564;2023-08-06T14:51:52;4.50;;;3.78;;